createdAt,value
2023-05-03T00:01:17.224Z,9.45
2023-05-03T00:03:45.576Z,9.33
2023-05-03T00:06:12.952Z,9.35
2023-05-03T00:08:39.314Z,9.25
2023-05-03T00:11:05.722Z,9.17
2023-05-03T00:13:32.080Z,9.08
2023-05-03T00:15:58.419Z,9.11
2023-05-03T00:18:24.724Z,8.91
2023-05-03T00:20:51.266Z,8.90
2023-05-03T00:23:17.611Z,8.86
2023-05-03T00:25:44.621Z,8.78
2023-05-03T00:28:10.958Z,8.61
2023-05-03T00:30:37.277Z,8.54
2023-05-03T00:33:03.702Z,8.48
2023-05-03T00:35:30.175Z,8.42
2023-05-03T00:37:56.533Z,8.42
2023-05-03T00:40:22.858Z,8.31
2023-05-03T00:42:49.248Z,8.29
2023-05-03T00:45:15.894Z,8.20
2023-05-03T00:47:43.403Z,8.24
2023-05-03T00:50:11.733Z,8.16
2023-05-03T00:52:38.553Z,8.15
2023-05-03T00:55:05.202Z,8.03
2023-05-03T00:57:31.563Z,7.88
2023-05-03T00:59:59.043Z,8.08
2023-05-03T01:02:25.744Z,8.04
2023-05-03T01:04:53.464Z,8.02
2023-05-03T01:07:28.488Z,7.98
2023-05-03T01:09:54.759Z,7.92
2023-05-03T01:12:30.527Z,7.83
2023-05-03T01:15:06.524Z,7.67
2023-05-03T01:17:38.952Z,7.57
2023-05-03T01:20:08.524Z,7.67
2023-05-03T01:22:50.517Z,7.65
2023-05-03T01:25:16.825Z,7.69
2023-05-03T01:27:43.348Z,7.68
2023-05-03T01:30:10.988Z,7.72
2023-05-03T01:32:56.189Z,7.70
2023-05-03T01:35:31.517Z,7.72
2023-05-03T01:37:58.699Z,7.77
2023-05-03T01:40:26.653Z,7.81
2023-05-03T01:42:54.948Z,7.72
2023-05-03T01:45:21.803Z,7.71
2023-05-03T01:47:48.229Z,7.62
2023-05-03T01:50:14.628Z,7.56
2023-05-03T01:52:41.078Z,7.56
2023-05-03T01:55:07.571Z,7.48
2023-05-03T01:57:33.899Z,7.40
2023-05-03T02:00:00.354Z,7.37
2023-05-03T02:02:26.789Z,7.34
2023-05-03T02:04:53.142Z,7.21
2023-05-03T02:07:19.467Z,7.18
2023-05-03T02:09:45.792Z,7.15
2023-05-03T02:12:12.115Z,7.20
2023-05-03T02:14:38.390Z,7.07
2023-05-03T02:17:04.832Z,6.93
2023-05-03T02:19:31.199Z,6.83
2023-05-03T02:21:57.549Z,6.69
2023-05-03T02:24:24.057Z,6.74
2023-05-03T02:26:50.667Z,6.73
2023-05-03T02:29:17.015Z,6.75
2023-05-03T02:31:43.346Z,6.80
2023-05-03T02:34:09.739Z,6.73
2023-05-03T02:36:36.167Z,6.75
2023-05-03T02:39:02.487Z,6.71
2023-05-03T02:41:28.784Z,6.72
2023-05-03T02:43:55.063Z,6.66
2023-05-03T02:46:21.371Z,6.68
2023-05-03T02:48:47.747Z,6.68
2023-05-03T02:51:14.077Z,6.63
2023-05-03T02:53:40.576Z,6.62
2023-05-03T02:56:07.446Z,6.60
2023-05-03T02:58:33.744Z,6.63
2023-05-03T03:01:00.098Z,6.60
2023-05-03T03:03:26.752Z,6.55
2023-05-03T03:05:53.137Z,6.51
2023-05-03T03:08:19.430Z,6.52
2023-05-03T03:10:45.798Z,6.40
2023-05-03T03:13:12.126Z,6.46
2023-05-03T03:15:38.420Z,6.52
2023-05-03T03:18:04.923Z,6.51
2023-05-03T03:20:31.296Z,6.41
2023-05-03T03:22:57.705Z,6.30
2023-05-03T03:25:24.059Z,6.38
2023-05-03T03:27:50.375Z,6.39
2023-05-03T03:30:16.744Z,6.32
2023-05-03T03:32:43.077Z,6.23
2023-05-03T03:35:09.752Z,6.32
2023-05-03T03:37:36.069Z,6.30
2023-05-03T03:40:02.555Z,6.23
2023-05-03T03:42:29.172Z,6.27
2023-05-03T03:44:55.642Z,6.13
2023-05-03T03:47:22.193Z,6.09
2023-05-03T03:49:48.605Z,6.07
2023-05-03T03:52:15.009Z,6.09
2023-05-03T03:54:41.544Z,6.03
2023-05-03T03:57:07.945Z,5.93
2023-05-03T03:59:34.273Z,5.89
2023-05-03T04:02:00.669Z,5.90
2023-05-03T04:04:27.097Z,5.88
2023-05-03T04:06:53.602Z,5.88
2023-05-03T04:09:20.006Z,5.95
2023-05-03T04:11:46.415Z,5.99
2023-05-03T04:14:12.773Z,6.11
2023-05-03T04:16:39.190Z,6.12
2023-05-03T04:19:05.634Z,6.11
2023-05-03T04:21:32.274Z,6.19
2023-05-03T04:23:59.673Z,6.23
2023-05-03T04:26:31.795Z,6.22
2023-05-03T04:28:59.158Z,6.32
2023-05-03T04:31:26.880Z,6.28
2023-05-03T04:33:53.338Z,6.39
2023-05-03T04:36:19.668Z,6.43
2023-05-03T04:38:46.602Z,6.39
2023-05-03T04:41:15.508Z,6.43
2023-05-03T04:43:43.028Z,6.49
2023-05-03T04:46:09.349Z,6.43
2023-05-03T04:48:36.226Z,6.49
2023-05-03T04:51:02.664Z,6.53
2023-05-03T04:53:28.957Z,6.47
2023-05-03T04:55:55.268Z,6.48
2023-05-03T04:58:21.634Z,6.56
2023-05-03T05:00:48.931Z,6.53
2023-05-03T05:03:15.343Z,6.61
2023-05-03T05:05:41.733Z,6.52
2023-05-03T05:08:08.018Z,6.56
2023-05-03T05:10:38.736Z,6.68
2023-05-03T05:13:05.088Z,6.59
2023-05-03T05:15:31.370Z,6.67
2023-05-03T05:17:57.763Z,6.61
2023-05-03T05:20:24.204Z,6.61
2023-05-03T05:22:50.473Z,6.65
2023-05-03T05:25:16.938Z,6.78
2023-05-03T05:27:43.276Z,6.73
2023-05-03T05:30:09.724Z,6.75
2023-05-03T05:32:36.159Z,6.78
2023-05-03T05:35:02.542Z,6.84
2023-05-03T05:37:29.035Z,6.91
2023-05-03T05:39:55.473Z,7.03
2023-05-03T05:42:21.990Z,7.05
2023-05-03T05:44:48.265Z,7.07
2023-05-03T05:47:14.865Z,7.03
2023-05-03T05:49:41.247Z,7.12
2023-05-03T05:52:07.695Z,7.21
2023-05-03T05:54:34.029Z,7.06
2023-05-03T05:57:00.870Z,7.21
2023-05-03T05:59:27.227Z,7.29
2023-05-03T06:01:53.540Z,7.16
2023-05-03T06:04:19.877Z,7.30
2023-05-03T06:06:46.412Z,7.40
2023-05-03T06:09:23.488Z,7.57
2023-05-03T06:11:51.436Z,7.48
2023-05-03T06:14:19.280Z,7.60
2023-05-03T06:16:45.725Z,7.70
2023-05-03T06:19:12.126Z,7.74
2023-05-03T06:21:38.413Z,7.67
2023-05-03T06:24:04.817Z,7.90
2023-05-03T06:26:31.494Z,7.99
2023-05-03T06:28:57.870Z,8.12
2023-05-03T06:31:24.227Z,8.19
2023-05-03T06:33:50.691Z,8.22
2023-05-03T06:36:17.026Z,8.42
2023-05-03T06:38:43.905Z,8.44
2023-05-03T06:41:10.297Z,8.47
2023-05-03T06:43:36.580Z,8.60
2023-05-03T06:46:03.166Z,8.88
2023-05-03T06:48:29.638Z,9.07
2023-05-03T06:50:56.211Z,9.21
2023-05-03T06:53:22.607Z,9.36
2023-05-03T06:55:48.901Z,9.41
2023-05-03T06:58:16.608Z,9.57
2023-05-03T07:00:43.119Z,9.83
2023-05-03T07:03:09.494Z,9.92
2023-05-03T07:05:36.235Z,10.11
2023-05-03T07:08:03.476Z,10.26
2023-05-03T07:10:31.293Z,10.34
2023-05-03T07:12:57.890Z,10.39
2023-05-03T07:15:24.403Z,10.52
2023-05-03T07:17:50.793Z,10.56
2023-05-03T07:20:17.241Z,10.75
2023-05-03T07:22:44.471Z,10.81
2023-05-03T07:25:12.261Z,10.66
2023-05-03T07:27:38.696Z,10.80
2023-05-03T07:30:05.597Z,10.78
2023-05-03T07:32:32.412Z,10.90
2023-05-03T07:34:58.733Z,10.87
2023-05-03T07:37:26.817Z,10.77
2023-05-03T07:39:53.715Z,10.87
2023-05-03T07:42:20.365Z,10.72
2023-05-03T07:44:46.649Z,10.87
2023-05-03T07:47:12.987Z,10.29
2023-05-03T07:49:39.338Z,10.98
2023-05-03T07:52:05.852Z,11.13
2023-05-03T07:54:32.220Z,10.95
2023-05-03T07:56:58.552Z,11.01
2023-05-03T07:59:24.863Z,10.57
2023-05-03T08:01:51.484Z,10.95
2023-05-03T08:04:18.260Z,11.00
2023-05-03T08:06:44.959Z,11.12
2023-05-03T08:09:11.637Z,10.74
2023-05-03T08:11:38.008Z,10.77
2023-05-03T08:14:04.313Z,10.64
2023-05-03T08:16:30.919Z,11.02
2023-05-03T08:18:57.310Z,11.12
2023-05-03T08:21:26.083Z,10.65
2023-05-03T08:23:53.233Z,11.07
2023-05-03T08:26:19.555Z,11.18
2023-05-03T08:28:45.892Z,11.39
2023-05-03T08:31:12.364Z,11.42
2023-05-03T08:33:38.693Z,10.92
2023-05-03T08:36:05.191Z,11.20
2023-05-03T08:38:32.577Z,10.57
2023-05-03T08:41:04.558Z,11.27
2023-05-03T08:43:32.637Z,10.85
2023-05-03T08:45:59.033Z,11.30
2023-05-03T08:48:25.540Z,11.10
2023-05-03T08:50:53.762Z,11.37
2023-05-03T08:53:20.386Z,11.61
2023-05-03T08:55:46.693Z,11.69
2023-05-03T08:58:13.660Z,11.78
2023-05-03T09:00:41.683Z,11.70
2023-05-03T09:03:08.186Z,11.88
2023-05-03T09:05:35.487Z,12.09
2023-05-03T09:08:07.232Z,12.32
2023-05-03T09:10:36.592Z,12.55
2023-05-03T09:13:03.212Z,12.77
2023-05-03T09:15:30.490Z,13.03
2023-05-03T09:18:16.149Z,13.16
2023-05-03T09:20:50.946Z,13.28
2023-05-03T09:23:18.851Z,13.21
2023-05-03T09:25:49.270Z,13.20
2023-05-03T09:28:16.222Z,13.07
2023-05-03T09:30:42.802Z,13.22
2023-05-03T09:33:10.186Z,13.08
2023-05-03T09:35:37.013Z,13.03
2023-05-03T09:38:03.387Z,13.03
2023-05-03T09:40:29.848Z,12.93
2023-05-03T09:43:09.092Z,12.90
2023-05-03T09:45:36.242Z,12.90
2023-05-03T09:48:03.536Z,12.58
2023-05-03T09:50:32.021Z,12.52
2023-05-03T09:53:01.333Z,12.57
2023-05-03T09:55:28.079Z,12.79
2023-05-03T09:57:55.556Z,12.37
2023-05-03T10:00:22.044Z,12.84
2023-05-03T10:02:50.391Z,12.95
2023-05-03T10:05:18.353Z,13.12
2023-05-03T10:07:45.026Z,13.26
2023-05-03T10:10:11.372Z,12.95
2023-05-03T10:12:37.916Z,12.85
2023-05-03T10:15:07.266Z,13.00
2023-05-03T10:17:46.356Z,12.60
2023-05-03T10:20:29.141Z,12.87
2023-05-03T10:23:04.639Z,12.81
2023-05-03T10:25:31.848Z,12.92
2023-05-03T10:28:02.118Z,12.87
2023-05-03T10:30:29.746Z,12.91
2023-05-03T10:32:57.003Z,13.20
2023-05-03T10:35:26.327Z,13.28
2023-05-03T10:37:52.642Z,13.15
2023-05-03T10:40:19.187Z,13.00
2023-05-03T10:42:52.645Z,13.32
2023-05-03T10:45:22.927Z,13.32
2023-05-03T10:48:07.812Z,13.22
2023-05-03T10:50:34.198Z,13.09
2023-05-03T10:53:00.557Z,13.07
2023-05-03T10:55:26.890Z,13.30
2023-05-03T10:57:55.131Z,13.36
2023-05-03T11:00:31.058Z,13.15
2023-05-03T11:03:12.603Z,13.33
2023-05-03T11:05:39.201Z,13.19
2023-05-03T11:08:09.460Z,12.93
2023-05-03T11:10:35.941Z,12.56
2023-05-03T11:13:02.218Z,12.94
2023-05-03T11:15:28.569Z,13.10
2023-05-03T11:17:55.032Z,13.28
2023-05-03T11:20:21.366Z,13.37
2023-05-03T11:22:47.871Z,13.48
2023-05-03T11:25:15.351Z,13.60
2023-05-03T11:27:42.014Z,13.85
2023-05-03T11:30:10.155Z,13.96
2023-05-03T11:32:36.867Z,13.99
2023-05-03T11:35:05.669Z,14.23
2023-05-03T11:37:32.320Z,14.41
2023-05-03T11:39:59.000Z,14.26
2023-05-03T11:42:26.579Z,14.53
2023-05-03T11:44:53.083Z,14.64
2023-05-03T11:47:19.583Z,14.54
2023-05-03T11:49:52.726Z,14.62
2023-05-03T11:52:26.150Z,14.61
2023-05-03T11:54:52.459Z,14.45
2023-05-03T11:57:19.312Z,14.27
2023-05-03T11:59:46.202Z,14.39
2023-05-03T12:02:14.018Z,14.40
2023-05-03T12:04:42.127Z,13.69
2023-05-03T12:07:15.114Z,13.72
2023-05-03T12:09:47.321Z,13.22
2023-05-03T12:12:27.752Z,14.07
2023-05-03T12:15:00.913Z,13.57
2023-05-03T12:17:42.402Z,14.13
2023-05-03T12:22:51.252Z,14.09
2023-05-03T12:25:20.425Z,13.98
2023-05-03T12:27:59.907Z,14.07
2023-05-03T12:30:34.178Z,14.13
2023-05-03T12:33:04.171Z,14.08
2023-05-03T12:35:33.508Z,14.03
2023-05-03T12:38:03.028Z,13.75
2023-05-03T12:40:34.056Z,13.95
2023-05-03T12:43:01.678Z,14.16
2023-05-03T12:45:32.151Z,14.24
2023-05-03T12:48:00.551Z,13.73
2023-05-03T12:50:30.987Z,14.07
2023-05-03T12:55:25.677Z,14.19
2023-05-03T12:58:13.896Z,14.22
2023-05-03T13:00:49.120Z,14.22
2023-05-03T13:03:32.511Z,14.18
2023-05-03T13:06:00.953Z,13.79
2023-05-03T13:08:34.053Z,13.87
2023-05-03T13:11:02.003Z,14.09
2023-05-03T13:13:28.705Z,14.06
2023-05-03T13:15:55.348Z,14.11
2023-05-03T13:18:22.767Z,13.58
2023-05-03T13:20:50.348Z,14.07
2023-05-03T13:23:16.704Z,14.08
2023-05-03T13:25:44.162Z,14.16
2023-05-03T13:28:10.491Z,14.34
2023-05-03T13:30:36.813Z,14.22
2023-05-03T13:33:03.365Z,14.30
2023-05-03T13:35:29.742Z,14.49
2023-05-03T13:37:56.568Z,14.62
2023-05-03T13:40:24.445Z,14.55
2023-05-03T13:42:51.061Z,14.59
2023-05-03T13:45:18.232Z,14.69
2023-05-03T13:50:13.840Z,14.56
2023-05-03T13:52:42.352Z,14.58
2023-05-03T13:55:08.933Z,14.58
2023-05-03T13:57:35.304Z,14.56
2023-05-03T14:00:02.102Z,14.67
2023-05-03T14:02:28.704Z,14.62
2023-05-03T14:04:55.092Z,14.38
2023-05-03T14:07:21.403Z,14.30
2023-05-03T14:09:47.728Z,14.58
2023-05-03T14:12:14.042Z,14.73
2023-05-03T14:14:40.502Z,14.79
2023-05-03T14:17:08.199Z,14.83
2023-05-03T14:19:35.477Z,14.72
2023-05-03T14:22:02.827Z,14.72
2023-05-03T14:24:29.170Z,14.71
2023-05-03T14:26:55.584Z,14.55
2023-05-03T14:29:21.956Z,14.55
2023-05-03T14:31:48.434Z,14.17
2023-05-03T14:34:15.144Z,14.68
2023-05-03T14:36:43.713Z,14.72
2023-05-03T14:39:10.566Z,14.61
2023-05-03T14:41:37.302Z,14.62
2023-05-03T14:44:03.920Z,14.72
2023-05-03T14:46:31.083Z,14.76
2023-05-03T14:48:57.554Z,14.71
2023-05-03T14:51:23.934Z,14.78
2023-05-03T14:53:50.650Z,14.79
2023-05-03T14:56:17.413Z,14.43
2023-05-03T14:58:43.828Z,14.66
2023-05-03T15:01:17.474Z,14.66
2023-05-03T15:03:43.922Z,14.71
2023-05-03T15:06:10.812Z,14.59
2023-05-03T15:08:39.038Z,14.66
2023-05-03T15:11:07.366Z,14.60
2023-05-03T15:13:34.122Z,14.61
2023-05-03T15:16:00.705Z,14.69
2023-05-03T15:18:27.408Z,14.58
2023-05-03T15:20:53.848Z,14.54
2023-05-03T15:23:20.264Z,14.62
2023-05-03T15:25:46.586Z,14.53
2023-05-03T15:28:12.876Z,14.64
2023-05-03T15:30:39.228Z,14.69
2023-05-03T15:33:05.580Z,14.66
2023-05-03T15:35:32.368Z,14.61
2023-05-03T15:37:58.740Z,14.76
2023-05-03T15:40:27.023Z,14.79
2023-05-03T15:42:53.588Z,14.87
2023-05-03T15:45:20.860Z,14.97
2023-05-03T15:47:47.174Z,14.96
2023-05-03T15:50:13.836Z,15.03
2023-05-03T15:52:40.360Z,15.07
2023-05-03T15:55:08.219Z,15.06
2023-05-03T15:57:34.663Z,15.11
2023-05-03T16:00:01.824Z,15.01
2023-05-03T16:02:28.276Z,15.18
2023-05-03T16:04:54.585Z,15.19
2023-05-03T16:07:21.001Z,15.24
2023-05-03T16:09:47.440Z,15.27
2023-05-03T16:12:13.725Z,15.25
2023-05-03T16:14:40.341Z,15.26
2023-05-03T16:17:06.709Z,15.18
2023-05-03T16:19:33.084Z,15.11
2023-05-03T16:21:59.456Z,14.84
2023-05-03T16:24:25.825Z,15.13
2023-05-03T16:26:52.613Z,15.12
2023-05-03T16:29:19.350Z,14.96
2023-05-03T16:31:46.894Z,14.95
2023-05-03T16:34:13.978Z,14.87
2023-05-03T16:36:43.970Z,14.87
2023-05-03T16:39:11.285Z,14.95
2023-05-03T16:41:37.907Z,14.80
2023-05-03T16:44:05.076Z,14.90
2023-05-03T16:46:35.960Z,14.49
2023-05-03T16:49:02.737Z,14.35
2023-05-03T16:51:29.138Z,14.58
2023-05-03T16:53:55.710Z,14.52
2023-05-03T16:56:22.646Z,14.70
2023-05-03T16:58:49.795Z,14.33
2023-05-03T17:01:16.282Z,14.58
2023-05-03T17:03:43.201Z,14.65
2023-05-03T17:06:09.554Z,14.52
2023-05-03T17:08:35.965Z,14.57
2023-05-03T17:11:06.552Z,14.45
2023-05-03T17:13:32.897Z,14.46
2023-05-03T17:15:59.181Z,14.48
2023-05-03T17:18:25.726Z,14.52
2023-05-03T17:20:52.731Z,14.45
2023-05-03T17:23:20.570Z,14.38
2023-05-03T17:25:48.295Z,14.27
2023-05-03T17:28:14.646Z,14.35
2023-05-03T17:30:40.985Z,14.32
2023-05-03T17:33:07.897Z,14.34
2023-05-03T17:35:34.558Z,14.23
2023-05-03T17:38:00.944Z,14.28
2023-05-03T17:40:27.327Z,14.16
2023-05-03T17:42:53.766Z,14.07
2023-05-03T17:45:20.074Z,14.02
2023-05-03T17:47:46.862Z,14.00
2023-05-03T17:50:13.715Z,14.04
2023-05-03T17:52:40.123Z,13.89
2023-05-03T17:55:06.634Z,13.93
2023-05-03T17:57:32.974Z,13.91
2023-05-03T17:59:59.361Z,13.94
2023-05-03T18:02:26.012Z,13.80
2023-05-03T18:04:52.985Z,13.76
2023-05-03T18:07:19.515Z,13.75
2023-05-03T18:09:45.826Z,13.82
2023-05-03T18:12:13.566Z,13.72
2023-05-03T18:14:39.890Z,13.73
2023-05-03T18:17:07.389Z,13.49
2023-05-03T18:19:33.697Z,13.53
2023-05-03T18:22:00.048Z,13.48
2023-05-03T18:24:26.491Z,13.29
2023-05-03T18:26:52.798Z,13.20
2023-05-03T18:29:19.166Z,12.88
2023-05-03T18:31:45.642Z,12.98
2023-05-03T18:34:12.098Z,12.93
2023-05-03T18:36:39.006Z,12.85
2023-05-03T18:39:05.493Z,12.79
2023-05-03T18:41:31.957Z,12.69
2023-05-03T18:43:58.737Z,12.50
2023-05-03T18:46:25.095Z,12.31
2023-05-03T18:48:51.447Z,12.08
2023-05-03T18:51:18.135Z,11.86
2023-05-03T18:53:44.832Z,11.63
2023-05-03T18:56:11.258Z,11.42
2023-05-03T18:58:37.708Z,11.15
2023-05-03T19:01:05.591Z,11.03
2023-05-03T19:03:32.072Z,10.79
2023-05-03T19:06:03.941Z,10.55
2023-05-03T19:08:30.746Z,10.36
2023-05-03T19:10:57.088Z,10.18
2023-05-03T19:13:23.510Z,10.04
2023-05-03T19:15:50.050Z,9.92
2023-05-03T19:18:16.907Z,9.76
2023-05-03T19:20:43.534Z,9.57
2023-05-03T19:23:09.935Z,9.47
2023-05-03T19:25:36.555Z,9.34
2023-05-03T19:28:05.060Z,9.21
2023-05-03T19:30:31.518Z,9.09
2023-05-03T19:32:58.214Z,8.99
2023-05-03T19:35:24.689Z,8.90
2023-05-03T19:37:51.035Z,8.84
2023-05-03T19:40:17.803Z,8.73
2023-05-03T19:42:44.144Z,8.67
2023-05-03T19:45:10.903Z,8.58
2023-05-03T19:47:37.294Z,8.51
2023-05-03T19:50:03.890Z,8.48
2023-05-03T19:52:31.422Z,8.30
2023-05-03T19:54:57.938Z,8.19
2023-05-03T19:57:24.479Z,8.12
2023-05-03T19:59:50.874Z,8.10
2023-05-03T20:02:18.417Z,8.02
2023-05-03T20:04:44.781Z,7.90
2023-05-03T20:07:11.325Z,7.67
2023-05-03T20:09:37.619Z,7.67
2023-05-03T20:12:04.123Z,7.63
2023-05-03T20:14:30.504Z,7.61
2023-05-03T20:16:56.916Z,7.54
2023-05-03T20:19:24.178Z,7.76
2023-05-03T20:21:50.584Z,8.19
2023-05-03T20:24:16.925Z,8.47
2023-05-03T20:26:43.435Z,8.73
2023-05-03T20:29:10.305Z,8.98
2023-05-03T20:31:36.670Z,9.18
2023-05-03T20:34:03.121Z,9.37
2023-05-03T20:36:29.564Z,9.37
2023-05-03T20:38:56.368Z,9.43
2023-05-03T20:41:23.074Z,9.33
2023-05-03T20:43:51.115Z,9.33
2023-05-03T20:46:18.171Z,9.33
2023-05-03T20:48:44.563Z,9.34
2023-05-03T20:51:10.912Z,9.33
2023-05-03T20:53:37.346Z,9.34
2023-05-03T20:56:06.271Z,9.34
2023-05-03T20:58:32.917Z,9.29
2023-05-03T21:01:00.539Z,9.18
2023-05-03T21:03:27.060Z,9.17
2023-05-03T21:05:53.798Z,9.15
2023-05-03T21:08:20.184Z,9.03
2023-05-03T21:10:46.536Z,9.03
2023-05-03T21:13:13.046Z,8.92
2023-05-03T21:15:39.489Z,8.90
2023-05-03T21:18:06.549Z,8.81
2023-05-03T21:20:33.452Z,8.66
2023-05-03T21:22:59.930Z,8.76
2023-05-03T21:25:26.305Z,8.67
2023-05-03T21:27:53.201Z,8.65
2023-05-03T21:30:20.532Z,8.55
2023-05-03T21:32:49.573Z,8.56
2023-05-03T21:35:16.764Z,8.52
2023-05-03T21:37:43.493Z,8.40
2023-05-03T21:40:10.295Z,8.49
2023-05-03T21:42:36.872Z,8.41
2023-05-03T21:45:03.245Z,8.37
2023-05-03T21:47:29.725Z,8.24
2023-05-03T21:49:56.132Z,8.35
2023-05-03T21:52:22.460Z,8.34
2023-05-03T21:54:48.796Z,8.21
2023-05-03T21:57:15.185Z,8.28
2023-05-03T21:59:41.960Z,8.23
2023-05-03T22:02:08.447Z,8.26
2023-05-03T22:04:34.880Z,8.23
2023-05-03T22:07:01.258Z,8.23
2023-05-03T22:09:27.549Z,8.29
2023-05-03T22:11:53.854Z,8.21
2023-05-03T22:14:20.147Z,8.29
2023-05-03T22:16:46.459Z,8.23
2023-05-03T22:19:13.269Z,8.20
2023-05-03T22:21:39.569Z,8.25
2023-05-03T22:24:06.246Z,8.24
2023-05-03T22:26:32.552Z,8.30
2023-05-03T22:28:58.867Z,8.38
2023-05-03T22:31:26.513Z,8.32
2023-05-03T22:33:53.007Z,8.28
2023-05-03T22:36:19.325Z,8.21
2023-05-03T22:38:45.721Z,8.23
2023-05-03T22:41:12.244Z,8.10
2023-05-03T22:43:38.711Z,8.03
2023-05-03T22:46:05.443Z,8.08
2023-05-03T22:48:33.908Z,8.10
2023-05-03T22:51:00.260Z,8.01
2023-05-03T22:53:26.626Z,8.08
2023-05-03T22:56:01.350Z,8.05
2023-05-03T22:58:27.925Z,8.00
2023-05-03T23:00:54.318Z,7.93
2023-05-03T23:03:21.357Z,7.89
2023-05-03T23:05:48.680Z,7.95
2023-05-03T23:08:15.350Z,7.88
2023-05-03T23:10:42.163Z,7.78
2023-05-03T23:13:09.458Z,7.72
2023-05-03T23:15:36.032Z,7.72
2023-05-03T23:18:02.811Z,7.67
2023-05-03T23:20:29.461Z,7.60
2023-05-03T23:22:55.809Z,7.63
2023-05-03T23:25:22.206Z,7.64
2023-05-03T23:27:48.923Z,7.61
2023-05-03T23:30:15.703Z,7.61
2023-05-03T23:32:42.761Z,7.60
2023-05-03T23:35:10.282Z,7.56
2023-05-03T23:37:37.358Z,7.53
2023-05-03T23:40:04.751Z,7.60
2023-05-03T23:42:31.337Z,7.66
2023-05-03T23:44:57.714Z,7.56
2023-05-03T23:47:24.192Z,7.26
2023-05-03T23:49:50.944Z,7.39
2023-05-03T23:52:18.955Z,7.35
2023-05-03T23:54:45.369Z,7.36
2023-05-03T23:57:11.735Z,7.28
2023-05-03T23:59:38.068Z,7.47
